Time;durP1;ratioP1;P1;durP2;ratioP2;P2;SDS_P1;SDS_P2;PMS_P1;PMS_P2;Temp;Humidity;BMP_temperature;BMP_pressure;BME280_temperature;BME280_humidity;BME280_pressure;Samples;Min_cycle;Max_cycle;Signal;HPM_P1;HPM_P2
2023/03/24 00:01:05;;;;;;;4.10;1.25;;;;;;;10.68;96.94;99492.28;5024522;28;20041;-78
2023/03/24 00:03:32;;;;;;;1.50;1.08;;;;;;;10.69;96.95;99485.28;5030266;28;20053;-77
2023/03/24 00:06:04;;;;;;;1.60;1.17;;;;;;;10.67;97.21;99490.56;5029604;28;20045;-76
2023/03/24 00:08:36;;;;;;;2.03;0.77;;;;;;;10.72;96.83;99488.66;5046146;28;20107;-78
2023/03/24 00:11:06;;;;;;;2.47;0.95;;;;;;;10.75;96.46;99490.34;5047491;28;20116;-82
2023/03/24 00:13:36;;;;;;;2.13;1.30;;;;;;;10.75;96.45;99493.84;5026394;28;20057;-76
2023/03/24 00:16:15;;;;;;;2.50;1.05;;;;;;;10.78;96.57;99490.28;5026471;28;20087;-79
2023/03/24 00:18:42;;;;;;;3.72;1.30;;;;;;;10.85;95.64;99489.19;5027022;28;20156;-78
2023/03/24 00:21:10;;;;;;;1.90;0.80;;;;;;;10.94;94.75;99485.44;5029654;28;20060;-75
2023/03/24 00:23:37;;;;;;;3.22;1.00;;;;;;;10.99;95.02;99480.94;5025651;28;20124;-75
2023/03/24 00:26:14;;;;;;;9.32;2.20;;;;;;;11.05;94.72;99485.13;5016471;28;20379;-77
2023/03/24 00:28:43;;;;;;;1.70;0.77;;;;;;;11.06;94.82;99460.66;5016439;28;20057;-77
2023/03/24 00:31:14;;;;;;;1.38;1.25;;;;;;;11.08;95.21;99474.53;5032681;28;20056;-76
2023/03/24 00:33:42;;;;;;;1.77;0.98;;;;;;;11.09;95.54;99471.91;5025634;28;20037;-80
2023/03/24 00:36:12;;;;;;;1.95;1.02;;;;;;;11.06;96.54;99474.59;5031383;28;20041;-76
2023/03/24 00:38:41;;;;;;;4.75;1.75;;;;;;;11.00;97.01;99466.06;5015982;28;20084;-76
2023/03/24 00:41:12;;;;;;;2.63;0.75;;;;;;;10.93;98.60;99461.00;5031755;28;20472;-76
2023/03/24 00:43:39;;;;;;;1.75;1.42;;;;;;;10.94;99.12;99454.03;5024939;28;20387;-75
2023/03/24 00:46:10;;;;;;;0.60;0.60;;;;;;;10.88;99.42;99451.56;5022589;28;20465;-81
2023/03/24 00:48:40;;;;;;;1.95;1.13;;;;;;;10.85;100.00;99449.06;5041491;28;20053;-79
2023/03/24 00:51:09;;;;;;;5.15;1.40;;;;;;;10.82;100.00;99444.78;5020644;28;20144;-77
2023/03/24 00:53:42;;;;;;;2.42;0.98;;;;;;;10.77;100.00;99438.81;5031047;28;20045;-78
2023/03/24 00:56:10;;;;;;;2.78;1.25;;;;;;;10.74;100.00;99438.88;5031288;28;20052;-76
2023/03/24 00:58:36;;;;;;;2.53;1.60;;;;;;;10.72;100.00;99435.47;5034938;28;20051;-81
2023/03/24 01:01:05;;;;;;;1.38;1.10;;;;;;;10.72;100.00;99422.38;5031311;28;20041;-77
2023/03/24 01:03:33;;;;;;;3.45;1.58;;;;;;;10.71;100.00;99415.44;5021379;28;20072;-77
2023/03/24 01:06:01;;;;;;;1.85;1.75;;;;;;;10.68;100.00;99424.22;5018557;28;20042;-76
2023/03/24 01:08:28;;;;;;;2.25;1.20;;;;;;;10.66;100.00;99417.31;5039533;28;20038;-77
2023/03/24 01:10:56;;;;;;;3.22;1.25;;;;;;;10.66;100.00;99404.25;5026096;28;20072;-88
2023/03/24 01:13:28;;;;;;;3.47;2.08;;;;;;;10.65;100.00;99406.00;5041646;28;20452;-76
2023/03/24 01:15:56;;;;;;;0.85;0.85;;;;;;;10.63;100.00;99399.94;5026492;28;20100;-78
2023/03/24 01:18:23;;;;;;;2.90;1.80;;;;;;;10.69;100.00;99396.28;5028321;28;20034;-76
2023/03/24 01:20:51;;;;;;;3.63;1.30;;;;;;;10.66;100.00;99396.38;5013307;28;20148;-77
2023/03/24 01:23:22;;;;;;;2.15;1.00;;;;;;;10.65;100.00;99387.69;5024154;28;20056;-77
2023/03/24 01:25:50;;;;;;;3.60;1.30;;;;;;;10.66;100.00;99391.16;5034621;28;20050;-76
2023/03/24 01:28:22;;;;;;;4.43;1.90;;;;;;;10.68;100.00;99377.13;5031954;28;20099;-76
2023/03/24 01:30:49;;;;;;;1.90;1.30;;;;;;;10.69;100.00;99386.69;5032565;28;20037;-76
2023/03/24 01:33:16;;;;;;;3.20;1.55;;;;;;;10.70;100.00;99385.78;5032218;28;20049;-78
2023/03/24 01:35:42;;;;;;;2.70;1.80;;;;;;;10.71;100.00;99373.56;5031296;28;20137;-81
2023/03/24 01:38:11;;;;;;;2.08;1.10;;;;;;;10.70;100.00;99379.69;5031594;28;20049;-78
2023/03/24 01:40:44;;;;;;;3.40;1.30;;;;;;;10.68;100.00;99368.41;5032372;28;20102;-76
2023/03/24 01:43:23;;;;;;;3.28;1.60;;;;;;;10.65;100.00;99352.78;5030948;28;20053;-76
2023/03/24 01:46:01;;;;;;;2.60;1.17;;;;;;;10.68;100.00;99355.34;5005129;28;20049;-76
2023/03/24 01:49:01;;;;;;;1.90;1.58;;;;;;;10.68;100.00;99353.56;5033262;28;20042;-76
2023/03/24 01:51:42;;;;;;;2.30;1.70;;;;;;;10.67;100.00;99348.38;5031263;28;20403;-76
2023/03/24 01:54:35;;;;;;;2.50;1.38;;;;;;;10.68;100.00;99339.63;5023285;28;20048;-76
2023/03/24 01:57:20;;;;;;;2.88;1.83;;;;;;;10.69;100.00;99342.19;5031467;28;20037;-77
2023/03/24 01:59:51;;;;;;;1.88;1.23;;;;;;;10.71;100.00;99329.06;5027289;28;20052;-78
2023/03/24 02:02:20;;;;;;;1.75;1.30;;;;;;;10.75;100.00;99322.81;5022276;28;20037;-77
2023/03/24 02:04:53;;;;;;;1.75;1.52;;;;;;;10.78;100.00;99325.38;5022581;28;20048;-77
2023/03/24 02:07:40;;;;;;;1.10;0.90;;;;;;;10.75;100.00;99312.34;5031520;28;20046;-77
2023/03/24 02:10:12;;;;;;;2.00;0.88;;;;;;;10.73;100.00;99304.56;5031878;28;20045;-77
2023/03/24 02:12:40;;;;;;;4.43;0.98;;;;;;;10.72;100.00;99299.38;5015746;28;20510;-76
2023/03/24 02:15:08;;;;;;;1.58;1.13;;;;;;;10.74;100.00;99292.31;5026997;28;20045;-78
2023/03/24 02:18:07;;;;;;;2.42;1.60;;;;;;;10.77;100.00;99284.38;5027177;28;20124;-77
2023/03/24 02:21:28;;;;;;;2.17;1.17;;;;;;;10.76;100.00;99287.91;5020798;28;20163;-76
2023/03/24 02:24:43;;;;;;;2.88;1.05;;;;;;;10.80;100.00;99286.03;5021607;28;20049;-79
2023/03/24 02:27:40;;;;;;;1.10;1.00;;;;;;;10.82;100.00;99282.47;5033613;28;20052;-78
2023/03/24 02:31:06;;;;;;;1.30;0.65;;;;;;;10.87;100.00;99285.81;5032757;28;20550;-76
2023/03/24 02:34:10;;;;;;;1.65;0.90;;;;;;;10.87;100.00;99271.84;5052514;28;20040;-80
2023/03/24 02:37:26;;;;;;;1.67;1.10;;;;;;;10.88;100.00;99286.63;5047403;28;20090;-82
2023/03/24 02:40:30;;;;;;;1.33;1.08;;;;;;;10.93;100.00;99288.19;5044995;28;20037;-80
2023/03/24 02:43:05;;;;;;;1.20;1.10;;;;;;;10.92;100.00;99290.88;5053959;28;20447;-77
2023/03/24 02:46:12;;;;;;;0.98;0.70;;;;;;;10.92;100.00;99278.66;5018378;28;20291;-77
2023/03/24 02:49:14;;;;;;;2.17;0.90;;;;;;;10.94;100.00;99270.75;5048333;28;20041;-79
2023/03/24 02:52:21;;;;;;;2.42;0.80;;;;;;;10.96;100.00;99268.06;5050741;28;20052;-77
2023/03/24 02:55:07;;;;;;;1.45;1.35;;;;;;;10.99;100.00;99260.09;5031720;28;20049;-77
2023/03/24 02:57:40;;;;;;;1.05;1.05;;;;;;;11.02;100.00;99262.63;5037110;28;20059;-78
2023/03/24 03:00:09;;;;;;;;;;;;;;;11.05;100.00;99250.28;5043680;28;20067;-77
2023/03/24 03:02:41;;;;;;;1.50;1.40;;;;;;;11.04;100.00;99247.72;5036794;28;19921;-77
2023/03/24 03:05:23;;;;;;;1.45;1.23;;;;;;;11.06;100.00;99235.44;5036557;28;20049;-84
2023/03/24 03:07:54;;;;;;;1.13;1.02;;;;;;;11.04;100.00;99232.00;5028659;28;20091;-76
2023/03/24 03:10:25;;;;;;;3.10;1.08;;;;;;;11.01;100.00;99221.63;5009301;28;20072;-76
2023/03/24 03:12:58;;;;;;;5.32;1.20;;;;;;;10.99;100.00;99226.94;5024870;28;20045;-88
2023/03/24 03:15:31;;;;;;;1.70;1.60;;;;;;;10.99;100.00;99220.81;5033398;28;20041;-77
2023/03/24 03:18:33;;;;;;;1.50;1.40;;;;;;;11.01;100.00;99222.47;5008001;28;20147;-77
2023/03/24 03:21:10;;;;;;;0.77;0.77;;;;;;;11.02;100.00;99216.34;5029530;28;20385;-76
2023/03/24 03:23:42;;;;;;;1.30;1.20;;;;;;;11.04;100.00;99219.78;5032865;28;20041;-77
2023/03/24 03:26:18;;;;;;;1.15;1.15;;;;;;;11.05;100.00;99213.63;5036834;28;20044;-79
2023/03/24 03:28:56;;;;;;;1.00;1.00;;;;;;;11.05;100.00;99204.91;5032210;28;20124;-77
2023/03/24 03:31:31;;;;;;;4.82;1.02;;;;;;;11.06;100.00;99202.25;5019735;28;20462;-77
2023/03/24 03:34:15;;;;;;;2.17;1.00;;;;;;;11.08;100.00;99194.31;5033779;28;20136;-77
2023/03/24 03:37:10;;;;;;;1.35;1.30;;;;;;;11.06;100.00;99185.69;5029929;28;20064;-77
2023/03/24 03:39:48;;;;;;;1.13;1.02;;;;;;;11.05;100.00;99181.34;5030983;28;20055;-79
2023/03/24 03:42:14;;;;;;;0.90;0.90;;;;;;;11.02;100.00;99176.22;5033134;28;20091;-81
2023/03/24 03:44:41;;;;;;;1.20;1.10;;;;;;;11.05;100.00;99170.88;5040657;28;20120;-77
2023/03/24 03:47:08;;;;;;;1.10;1.00;;;;;;;11.08;100.00;99168.13;5032152;28;20479;-82
2023/03/24 03:49:35;;;;;;;1.10;1.00;;;;;;;11.11;100.00;99167.16;5015538;28;20044;-76
2023/03/24 03:52:02;;;;;;;1.45;1.35;;;;;;;11.13;100.00;99168.81;5033340;28;20144;-83
2023/03/24 03:54:31;;;;;;;1.40;1.30;;;;;;;11.12;100.00;99163.66;5032243;28;20467;-83
2023/03/24 03:56:59;;;;;;;1.88;1.15;;;;;;;11.13;100.00;99157.50;5035756;28;20394;-83
2023/03/24 03:59:33;;;;;;;2.50;1.50;;;;;;;11.08;100.00;99155.03;5035678;28;20302;-76
2023/03/24 04:02:36;;;;;;;1.98;1.42;;;;;;;11.04;100.00;99151.69;5035370;28;20471;-77
2023/03/24 04:05:26;;;;;;;1.03;1.03;;;;;;;11.03;100.00;99144.75;5035225;28;20064;-82
2023/03/24 04:08:07;;;;;;;1.80;1.70;;;;;;;11.03;100.00;99151.72;5048386;28;20049;-80
2023/03/24 04:11:09;;;;;;;2.13;1.17;;;;;;;11.05;100.00;99142.91;5033173;28;20045;-77
2023/03/24 04:13:54;;;;;;;3.20;1.52;;;;;;;11.06;100.00;99146.41;5024381;28;20653;-77
2023/03/24 04:16:53;;;;;;;5.38;1.58;;;;;;;11.04;100.00;99138.59;5033269;28;20407;-77
2023/03/24 04:19:54;;;;;;;2.47;1.85;;;;;;;11.00;100.00;99139.63;5049566;28;20510;-77
2023/03/24 04:22:39;;;;;;;2.30;2.10;;;;;;;11.00;100.00;99129.16;5033720;28;20041;-77
2023/03/24 04:25:21;;;;;;;2.03;1.58;;;;;;;10.94;100.00;99121.50;5041689;28;20037;-78
2023/03/24 04:28:08;;;;;;;2.13;1.92;;;;;;;10.86;100.00;99118.28;5036676;28;20402;-77
2023/03/24 04:30:44;;;;;;;2.13;2.03;;;;;;;10.80;100.00;99123.75;5033308;28;20464;-77
2023/03/24 04:33:16;;;;;;;2.10;2.00;;;;;;;10.73;100.00;99116.09;5022866;28;20041;-79
2023/03/24 04:35:51;;;;;;;2.78;1.92;;;;;;;10.69;100.00;99111.88;5036575;28;20475;-77
2023/03/24 04:38:26;;;;;;;3.40;2.00;;;;;;;10.66;100.00;99103.28;5023977;28;20444;-86
2023/03/24 04:40:55;;;;;;;2.75;2.20;;;;;;;10.64;100.00;99102.47;5035725;28;20072;-81
2023/03/24 04:43:27;;;;;;;2.40;2.20;;;;;;;10.62;100.00;99099.06;5020250;28;20102;-77
2023/03/24 04:45:56;;;;;;;2.88;2.58;;;;;;;10.59;100.00;99092.16;5023494;28;20102;-77
2023/03/24 04:48:24;;;;;;;3.05;2.85;;;;;;;10.58;100.00;99099.16;5034028;28;20045;-79
2023/03/24 04:51:02;;;;;;;3.65;2.72;;;;;;;10.56;100.00;99090.50;5032577;28;20092;-77
2023/03/24 04:53:29;;;;;;;2.38;2.17;;;;;;;10.57;100.00;99102.69;5024462;28;20048;-77
2023/03/24 04:56:27;;;;;;;3.55;2.80;;;;;;;10.57;100.00;99088.72;5040617;28;20052;-76
2023/03/24 04:58:53;;;;;;;3.40;2.60;;;;;;;10.57;100.00;99080.88;5024779;28;20055;-76
2023/03/24 05:01:21;;;;;;;4.78;3.15;;;;;;;10.59;100.00;99090.41;5035725;28;20040;-84
2023/03/24 05:03:48;;;;;;;2.58;2.38;;;;;;;10.62;100.00;99088.59;5051733;28;20051;-78
2023/03/24 05:06:15;;;;;;;2.83;2.60;;;;;;;10.64;100.00;99084.16;5052565;28;20090;-77
2023/03/24 05:08:42;;;;;;;4.72;2.85;;;;;;;10.64;100.00;99090.25;5019767;28;20132;-79
2023/03/24 05:11:08;;;;;;;2.63;2.42;;;;;;;10.65;100.00;99085.88;5015237;28;20046;-78
2023/03/24 05:13:35;;;;;;;3.03;2.72;;;;;;;10.65;100.00;99070.16;5035340;28;20052;-79
2023/03/24 05:16:01;;;;;;;3.28;3.05;;;;;;;10.68;100.00;99073.53;5036498;28;20112;-76
2023/03/24 05:18:47;;;;;;;3.92;3.45;;;;;;;10.69;100.00;99071.75;5052811;28;20056;-77
2023/03/24 05:21:40;;;;;;;4.55;2.78;;;;;;;10.72;100.00;99061.19;5423336;23;20052;-78
2023/03/24 05:24:06;;;;;;;4.35;2.80;;;;;;;10.75;100.00;99068.94;5033414;28;20098;-77
2023/03/24 05:26:33;;;;;;;3.33;3.03;;;;;;;10.78;100.00;99067.97;5034862;28;20048;-81
2023/03/24 05:29:00;;;;;;;3.70;2.75;;;;;;;10.82;100.00;99059.09;5018796;28;20092;-77
2023/03/24 05:31:27;;;;;;;4.38;2.70;;;;;;;10.84;100.00;99059.91;5024321;28;20042;-78
2023/03/24 05:34:03;;;;;;;3.25;2.95;;;;;;;10.90;100.00;99059.69;5030726;28;20045;-76
2023/03/24 05:40:34;;;;;;;4.18;2.63;;;;;;;11.06;100.00;99054.75;5043243;28;20087;-77
2023/03/24 05:43:23;;;;;;;2.55;2.20;;;;;;;11.14;100.00;99060.56;5038171;28;20033;-76
2023/03/24 05:45:51;;;;;;;2.15;2.00;;;;;;;11.28;100.00;99054.81;5015749;28;20403;-77
2023/03/24 05:48:17;;;;;;;2.72;2.28;;;;;;;11.43;100.00;99045.50;5036033;28;20052;-78
2023/03/24 05:50:45;;;;;;;2.35;2.25;;;;;;;11.57;100.00;99052.84;5036895;28;20044;-75
2023/03/24 05:53:11;;;;;;;2.53;2.33;;;;;;;11.61;100.00;99058.81;5036027;28;20045;-76
2023/03/24 05:55:39;;;;;;;2.08;1.98;;;;;;;11.68;100.00;99057.66;5017309;28;20372;-78
2023/03/24 05:58:06;;;;;;;2.42;2.22;;;;;;;11.70;100.00;99074.19;5014493;28;20041;-77
2023/03/24 06:00:33;;;;;;;2.40;2.20;;;;;;;11.72;100.00;99070.59;5023881;28;20041;-77
2023/03/24 06:03:00;;;;;;;1.88;1.73;;;;;;;11.72;100.00;99077.59;5035088;28;20056;-77
2023/03/24 06:05:27;;;;;;;2.03;1.92;;;;;;;11.79;100.00;99065.97;5053130;28;20037;-78
2023/03/24 06:07:57;;;;;;;4.55;2.38;;;;;;;11.75;100.00;99074.88;5025979;28;20044;-76
2023/03/24 06:10:26;;;;;;;6.05;2.60;;;;;;;11.71;100.00;99071.50;5027449;28;20047;-80
2023/03/24 06:12:54;;;;;;;2.90;2.70;;;;;;;11.70;100.00;99077.66;5015504;28;20060;-77
2023/03/24 06:15:26;;;;;;;3.13;2.40;;;;;;;11.68;100.00;99081.25;5015828;28;20049;-78
2023/03/24 06:17:59;;;;;;;3.35;2.45;;;;;;;11.64;100.00;99084.91;5059573;28;20059;-77
2023/03/24 06:27:52;;;;;;;2.25;1.95;;;;;;;11.37;100.00;99088.50;5086647;28;20037;-76
2023/03/24 06:30:19;;;;;;;2.63;2.42;;;;;;;11.31;100.00;99080.88;5080569;28;20138;-77
2023/03/24 06:32:46;;;;;;;3.05;2.50;;;;;;;11.28;100.00;99101.97;5059088;28;20051;-77
2023/03/24 06:35:16;;;;;;;2.97;2.78;;;;;;;11.24;100.00;99109.06;5093305;28;20470;-78
2023/03/24 06:37:45;;;;;;;2.85;2.63;;;;;;;11.23;100.00;99107.34;5062581;28;20050;-78
2023/03/24 06:40:15;;;;;;;3.97;3.30;;;;;;;11.22;100.00;99123.13;5058461;28;20474;-78
2023/03/24 06:46:55;;;;;;;3.60;2.25;;;;;;;11.33;100.00;99135.81;5073854;28;20048;-77
2023/03/24 06:49:42;;;;;;;1.85;1.73;;;;;;;11.21;100.00;99139.75;5074810;28;20388;-78
2023/03/24 06:52:12;;;;;;;1.77;1.67;;;;;;;11.18;100.00;99143.34;5039001;28;20068;-78
2023/03/24 06:54:39;;;;;;;1.10;1.00;;;;;;;11.19;100.00;99142.44;5050927;28;20048;-78
2023/03/24 06:57:06;;;;;;;1.88;0.70;;;;;;;11.20;100.00;99154.63;5066721;28;20056;-78
2023/03/24 06:59:52;;;;;;;1.05;1.05;;;;;;;11.26;100.00;99166.63;5058671;28;20088;-77
2023/03/24 07:02:48;;;;;;;0.80;0.80;;;;;;;11.19;100.00;99158.16;5057589;28;20049;-78
2023/03/24 07:05:40;;;;;;;1.15;0.85;;;;;;;11.04;100.00;99162.19;5056647;28;20049;-77
2023/03/24 07:08:36;;;;;;;5.10;0.80;;;;;;;10.93;100.00;99174.78;5058182;28;20059;-77
2023/03/24 07:14:54;;;;;;;0.90;0.90;;;;;;;11.07;100.00;99179.53;5069364;28;20062;-77
2023/03/24 07:50:14;;;;;;;0.98;0.60;;;;;;;12.94;93.12;99227.56;4976866;28;20046;-77
2023/03/24 07:52:46;;;;;;;1.00;0.90;;;;;;;13.53;89.87;99244.38;4943943;28;20465;-80
2023/03/24 07:55:12;;;;;;;0.47;0.47;;;;;;;13.23;90.20;99252.63;4992404;28;20045;-76
2023/03/24 07:57:51;;;;;;;2.35;0.75;;;;;;;13.28;89.72;99260.28;4945103;28;20389;-76
2023/03/24 08:00:23;;;;;;;0.82;0.40;;;;;;;13.23;86.77;99270.13;4960618;28;20051;-78
2023/03/24 08:07:52;;;;;;;2.40;0.57;;;;;;;13.21;85.23;99307.00;4976845;28;20053;-76
2023/03/24 08:10:35;;;;;;;4.35;0.70;;;;;;;14.05;81.68;99306.06;4962493;28;20166;-77
2023/03/24 08:13:21;;;;;;;0.88;0.50;;;;;;;14.46;78.31;99300.69;4962436;28;20053;-77
2023/03/24 08:17:05;;;;;;;0.45;0.30;;;;;;;13.68;81.97;99313.81;4963471;28;20402;-77
2023/03/24 08:19:52;;;;;;;2.55;0.85;;;;;;;13.54;80.91;99303.88;4980656;28;20096;-78
2023/03/24 08:22:32;;;;;;;1.05;0.60;;;;;;;13.19;80.27;99318.50;4979254;28;20054;-78
2023/03/24 08:24:58;;;;;;;0.82;0.63;;;;;;;12.99;81.40;99335.06;4978936;28;20049;-78
2023/03/24 08:27:25;;;;;;;0.68;0.30;;;;;;;13.26;79.18;99319.09;4996233;28;20047;-78
2023/03/24 08:29:58;;;;;;;1.23;0.50;;;;;;;13.39;77.54;99323.81;4979004;28;20047;-77
2023/03/24 08:32:32;;;;;;;0.68;0.50;;;;;;;13.99;74.93;99315.13;4962485;28;20038;-78
2023/03/24 08:35:20;;;;;;;2.00;0.90;;;;;;;14.95;72.39;99313.34;4961721;28;20085;-77
2023/03/24 08:37:47;;;;;;;1.40;0.80;;;;;;;15.79;69.17;99323.22;4978239;28;20066;-79
2023/03/24 08:40:22;;;;;;;1.08;0.40;;;;;;;16.57;63.80;99322.66;4995560;28;20477;-79
2023/03/24 08:43:01;;;;;;;4.25;0.68;;;;;;;16.75;62.05;99322.56;4978518;28;20051;-78
2023/03/24 08:45:32;;;;;;;0.55;0.22;;;;;;;16.19;63.23;99331.72;4978291;28;20089;-78
2023/03/24 08:48:06;;;;;;;0.50;0.50;;;;;;;15.55;65.31;99326.19;4990440;28;20077;-78
2023/03/24 08:50:37;;;;;;;1.45;0.30;;;;;;;15.17;66.23;99326.31;4995362;28;20514;-78
2023/03/24 08:53:04;;;;;;;1.55;0.60;;;;;;;14.95;67.67;99355.50;4981873;28;20046;-78
2023/03/24 08:55:31;;;;;;;1.50;0.35;;;;;;;15.32;66.40;99337.91;4961894;28;20503;-78
2023/03/24 08:58:00;;;;;;;2.03;0.70;;;;;;;16.05;64.97;99342.16;4993666;28;20046;-78
2023/03/24 09:00:31;;;;;;;3.13;0.57;;;;;;;15.77;63.24;99358.53;4993928;28;20100;-78
2023/03/24 09:02:59;;;;;;;3.03;0.68;;;;;;;16.20;62.61;99349.28;4977977;28;20046;-78
2023/03/24 09:05:27;;;;;;;2.67;0.50;;;;;;;15.47;63.13;99372.34;4977848;28;20093;-78
2023/03/24 09:07:54;;;;;;;1.17;0.30;;;;;;;15.61;61.10;99372.50;4988969;28;20472;-79
2023/03/24 09:10:23;;;;;;;4.20;0.80;;;;;;;14.67;62.52;99369.13;4977794;28;20042;-78
2023/03/24 09:12:50;;;;;;;3.83;0.98;;;;;;;15.21;61.31;99380.63;4977728;28;20049;-78
2023/03/24 09:15:16;;;;;;;4.00;1.23;;;;;;;14.59;61.45;99382.63;4976477;28;20157;-83
2023/03/24 09:17:43;;;;;;;3.05;1.65;;;;;;;14.40;62.32;99390.50;4959298;28;20050;-79
2023/03/24 09:20:14;;;;;;;5.40;0.90;;;;;;;14.29;62.25;99390.13;4973602;28;20054;-78
2023/03/24 09:22:44;;;;;;;3.42;1.33;;;;;;;14.16;63.81;99392.47;4969314;28;20042;-80
2023/03/24 09:25:14;;;;;;;4.10;1.00;;;;;;;13.83;65.32;99396.50;4974432;28;20042;-78
2023/03/24 09:27:41;;;;;;;3.28;1.40;;;;;;;13.86;65.40;99398.13;4974385;28;20046;-78
2023/03/24 09:30:10;;;;;;;5.22;1.48;;;;;;;13.76;66.44;99405.53;4974946;28;20101;-80
2023/03/24 09:32:37;;;;;;;6.32;1.77;;;;;;;13.57;67.55;99405.44;4974804;28;20519;-81
2023/03/24 09:35:04;;;;;;;2.47;1.30;;;;;;;13.48;68.44;99404.06;4976405;28;20049;-78
2023/03/24 09:37:34;;;;;;;4.40;1.88;;;;;;;13.59;68.19;99398.34;4979732;28;20046;-77
2023/03/24 09:40:01;;;;;;;4.47;0.93;;;;;;;13.63;67.94;99394.69;4971231;28;20050;-77
2023/03/24 09:42:40;;;;;;;4.00;1.70;;;;;;;13.72;68.49;99406.59;4957308;28;20053;-78
2023/03/24 09:45:17;;;;;;;3.83;1.25;;;;;;;14.48;65.67;99405.94;4977837;28;20125;-81
2023/03/24 09:47:54;;;;;;;3.72;1.50;;;;;;;16.16;61.05;99397.03;4982550;28;20038;-80
2023/03/24 09:50:29;;;;;;;7.18;1.77;;;;;;;16.65;59.37;99401.50;4973768;28;20045;-79
2023/03/24 09:53:04;;;;;;;5.65;1.50;;;;;;;17.39;55.44;99404.47;4958624;28;20053;-80
2023/03/24 09:55:31;;;;;;;4.95;1.23;;;;;;;18.39;52.20;99401.22;4972044;28;20044;-79
2023/03/24 09:58:07;;;;;;;3.47;1.50;;;;;;;19.28;48.26;99400.09;4975666;28;20045;-78
2023/03/24 10:00:34;;;;;;;2.90;1.50;;;;;;;19.01;47.40;99402.72;4974161;28;20046;-80
2023/03/24 10:03:13;;;;;;;3.47;1.42;;;;;;;17.87;49.96;99394.63;4957421;28;20507;-78
2023/03/24 10:06:06;;;;;;;3.80;1.27;;;;;;;16.80;51.53;99400.63;4980249;28;20493;-78
2023/03/24 10:08:41;;;;;;;5.38;1.25;;;;;;;17.17;50.13;99403.91;4974188;28;20042;-87
2023/03/24 10:11:22;;;;;;;6.13;1.55;;;;;;;17.88;48.84;99398.13;4981879;28;20478;-78
2023/03/24 10:14:17;;;;;;;4.15;1.10;;;;;;;17.69;48.92;99391.25;4980283;28;20046;-81
2023/03/24 10:17:01;;;;;;;6.35;1.17;;;;;;;17.95;48.49;99400.34;4972658;28;20100;-77
2023/03/24 10:20:15;;;;;;;2.83;0.93;;;;;;;18.52;46.62;99383.66;4971152;28;20038;-79
2023/03/24 10:23:13;;;;;;;;;;;;;;;17.61;48.85;99402.31;4974158;28;20046;-80
2023/03/24 10:26:07;;;;;;;3.25;1.63;;;;;;;16.58;51.05;99406.22;4968912;28;20377;-79
2023/03/24 10:28:41;;;;;;;;;;;;;;;17.29;49.50;99406.81;4964586;28;20437;-79
2023/03/24 10:31:13;;;;;;;5.95;1.45;;;;;;;18.18;47.43;99406.06;4972420;28;19922;-78
2023/03/24 10:33:44;;;;;;;1.88;1.30;;;;;;;18.19;47.84;99398.00;4967629;28;20104;-81
2023/03/24 10:36:18;;;;;;;5.97;1.48;;;;;;;17.53;49.90;99409.84;4957257;28;20050;-88
2023/03/24 10:38:45;;;;;;;6.30;1.50;;;;;;;16.72;51.07;99416.06;4960642;28;20133;-78
2023/03/24 10:41:23;;;;;;;9.13;1.65;;;;;;;15.81;52.86;99420.81;4983113;28;20049;-77
2023/03/24 10:43:52;;;;;;;5.85;1.40;;;;;;;15.25;54.97;99426.13;4980068;28;20409;-77
2023/03/24 10:46:23;;;;;;;6.93;2.22;;;;;;;14.91;56.07;99426.88;4972767;28;20485;-81
2023/03/24 10:49:13;;;;;;;4.25;1.83;;;;;;;14.65;57.00;99437.69;4977243;28;20525;-78
2023/03/24 10:51:47;;;;;;;3.95;1.35;;;;;;;14.75;56.96;99427.56;4985233;28;20042;-84
2023/03/24 10:54:24;;;;;;;8.20;1.85;;;;;;;15.24;55.70;99427.06;4976810;28;20050;-78
2023/03/24 10:56:57;;;;;;;4.05;1.65;;;;;;;15.18;55.71;99440.53;4979240;28;20039;-79
2023/03/24 11:00:13;;;;;;;6.75;1.80;;;;;;;15.12;56.54;99451.34;4992735;28;20046;-77
2023/03/24 11:02:42;;;;;;;4.65;1.63;;;;;;;15.27;55.87;99448.00;4966671;28;20133;-81
2023/03/24 11:05:11;;;;;;;5.03;1.70;;;;;;;15.20;55.80;99449.19;4975498;28;20054;-78
2023/03/24 11:07:48;;;;;;;4.97;1.77;;;;;;;14.80;57.39;99453.72;4997292;28;20052;-78
2023/03/24 11:10:20;;;;;;;5.85;2.08;;;;;;;14.91;57.73;99448.78;4990647;28;20500;-84
2023/03/24 11:12:56;;;;;;;4.13;1.65;;;;;;;15.54;56.00;99459.00;4974365;28;20129;-77
2023/03/24 11:15:29;;;;;;;3.17;1.77;;;;;;;16.78;53.30;99449.22;4987815;28;20687;-82
2023/03/24 11:18:15;;;;;;;7.63;2.60;;;;;;;17.63;50.49;99457.78;4959160;28;20451;-81
2023/03/24 11:20:59;;;;;;;4.80;1.80;;;;;;;19.21;46.09;99453.66;4976208;28;20042;-81
2023/03/24 11:23:31;;;;;;;5.18;1.80;;;;;;;19.76;45.42;99455.34;4987560;28;20507;-79
2023/03/24 11:26:15;;;;;;;7.53;2.33;;;;;;;19.08;45.51;99453.56;4956524;28;20140;-79
2023/03/24 11:28:56;;;;;;;3.80;1.13;;;;;;;19.06;45.47;99448.38;4971429;28;20042;-86
2023/03/24 11:31:30;;;;;;;5.32;1.30;;;;;;;17.60;47.89;99466.75;4972389;28;20050;-79
2023/03/24 11:34:07;;;;;;;5.85;1.52;;;;;;;16.16;51.64;99465.66;4974154;28;20046;-79
2023/03/24 11:36:41;;;;;;;5.07;1.20;;;;;;;15.36;53.75;99460.75;4957095;28;20369;-78
2023/03/24 11:39:22;;;;;;;2.88;1.58;;;;;;;15.00;55.08;99461.53;4975110;28;20058;-80
2023/03/24 11:42:12;;;;;;;5.80;1.55;;;;;;;15.03;54.48;99466.69;4973049;28;20042;-81
2023/03/24 11:44:38;;;;;;;5.03;1.80;;;;;;;15.16;53.80;99463.47;4982382;28;20108;-82
2023/03/24 11:47:21;;;;;;;4.35;1.23;;;;;;;16.72;50.25;99449.56;4989715;28;20050;-82
2023/03/24 11:50:10;;;;;;;4.37;1.97;;;;;;;18.21;46.81;99456.19;4986404;28;20050;-78
2023/03/24 11:53:11;;;;;;;4.78;1.58;;;;;;;18.99;45.15;99455.88;4981528;28;20385;-80
2023/03/24 11:55:52;;;;;;;4.68;1.55;;;;;;;19.80;43.49;99448.03;4954909;28;20074;-78
2023/03/24 11:58:46;;;;;;;6.60;1.00;;;;;;;20.12;41.66;99443.22;4974331;28;20042;-78
2023/03/24 12:01:31;;;;;;;3.58;1.30;;;;;;;21.07;38.49;99434.88;4958219;28;20050;-79
2023/03/24 12:04:29;;;;;;;5.15;1.08;;;;;;;20.55;39.29;99436.75;4963123;28;20050;-78
2023/03/24 12:07:35;;;;;;;3.60;1.08;;;;;;;20.54;38.87;99440.38;4960040;28;20048;-90
2023/03/24 12:10:40;;;;;;;5.55;1.25;;;;;;;21.66;36.99;99435.13;4961876;28;20051;-81
2023/03/24 12:13:13;;;;;;;3.70;0.90;;;;;;;19.96;39.54;99442.59;4978725;28;20043;-78
2023/03/24 12:16:00;;;;;;;5.93;1.05;;;;;;;18.50;42.83;99454.44;4976363;28;20034;-78
2023/03/24 12:18:37;;;;;;;2.50;1.10;;;;;;;17.78;44.99;99448.09;4973835;28;20106;-77
2023/03/24 12:21:44;;;;;;;7.80;0.95;;;;;;;17.62;45.70;99454.28;4975548;28;20051;-82
2023/03/24 12:24:56;;;;;;;6.45;1.45;;;;;;;17.96;44.87;99443.56;4990572;28;20401;-79
2023/03/24 12:27:54;;;;;;;5.97;1.05;;;;;;;19.18;42.31;99444.94;4953868;28;20065;-87
2023/03/24 12:30:55;;;;;;;4.10;0.90;;;;;;;18.19;44.07;99437.75;4972464;28;20039;-81
2023/03/24 12:33:53;;;;;;;5.30;1.17;;;;;;;17.69;45.83;99460.06;4989380;28;20058;-80
2023/03/24 12:36:31;;;;;;;2.65;1.30;;;;;;;19.72;42.46;99453.00;4958133;28;20056;-78
2023/03/24 12:39:23;;;;;;;5.45;1.15;;;;;;;20.32;40.42;99470.25;4973498;28;20094;-77
2023/03/24 12:42:11;;;;;;;5.13;1.05;;;;;;;20.61;40.06;99460.25;4961535;28;20503;-81
2023/03/24 12:45:10;;;;;;;3.00;1.05;;;;;;;21.75;37.68;99461.06;4966000;28;20051;-78
2023/03/24 12:48:11;;;;;;;3.15;1.10;;;;;;;19.28;40.96;99458.47;4991046;28;20043;-78
2023/03/24 12:51:08;;;;;;;4.85;0.77;;;;;;;18.92;41.31;99465.16;4976071;28;20038;-77
2023/03/24 12:54:07;;;;;;;3.10;0.88;;;;;;;19.45;39.90;99460.03;4980514;28;20038;-78
2023/03/24 12:56:50;;;;;;;5.22;1.30;;;;;;;20.12;39.79;99464.47;4976087;28;20101;-78
2023/03/24 12:59:29;;;;;;;;;;;;;;;20.43;38.67;99461.53;4974551;28;20042;-78
2023/03/24 13:02:19;;;;;;;5.22;0.98;;;;;;;19.40;39.69;99466.56;4973742;28;19921;-81
2023/03/24 13:04:49;;;;;;;2.13;0.65;;;;;;;18.13;42.39;99463.75;4977494;28;20051;-83
2023/03/24 13:07:24;;;;;;;2.83;0.73;;;;;;;17.24;43.99;99459.97;4974219;28;20101;-77
2023/03/24 13:10:06;;;;;;;7.35;2.10;;;;;;;16.43;45.75;99468.66;4985446;23;20077;-79
2023/03/24 13:13:01;;;;;;;4.03;0.90;;;;;;;15.79;47.40;99465.72;4991960;28;20092;-78
2023/03/24 13:15:40;;;;;;;1.75;0.57;;;;;;;15.43;48.46;99445.47;4977315;28;20412;-78